CYQD

The Pas Airport

The Pas, Manitoba, Canada
METAR CYQD 171300Z AUTO 12008KT 9SM OVC230 M16/M18 A3015 RMK SLP238
Observed Flight Rules
Dec-17 @ 13:00 UTC (14 minutes ago) Visual Flight Rules
Wind Visibility Clouds
120° at 8 knots 9 miles
  • Overcast at 23,000' AGL
Temperatures Readings
Current -16°C / 3°F
Dewpoint -18°C / -0°F
Humidity 85%
Altimeter 30.15" Hg
Pressure 1023.8 hPa
Elevation 271
METAR CYQD 171300Z AUTO 12008KT 9SM OVC230 M16/M18 A3015 RMK SLP238
Observed Flight Rules
Dec-17 @ 13:00 UTC
(14 minutes ago)
VFR
Wind Visibility
120° at 8 knots 9 miles
Clouds
  • Overcast at 23,000' AGL
Temperature Dewpoint
-16°C / 3°F -18°C / -0°F
Humidity Altimeter Pressure
85% 30.15" Hg 1023.8 hPa